Terminal Aerodrome Forecast
Issued by NWS Twin Cities, MN

Home | Current Version | Previous Version | Text Only | Print | Product List | Glossary On
Versions: 1 2 3 4 5 6 7 8 9 10 11 12 13 14 15 16 17 18 19 20 21 22 23 24 25
000
FTUS43 KMPX 222300
TAFMSP
TAF
KMSP 222336Z 2300/2406 14013KT P6SM VCSH SCT070 BKN090
     FM230600 16009KT 6SM -SHRA BR SCT020 OVC040
      TEMPO 2306/2310 4SM SHRA BR OVC020
     FM231000 18005KT 5SM BR SCT008 OVC018
     FM231500 24007KT P6SM SCT030=

USA.gov is the U.S. government's official web portal to all federal, state and local government web resources and services.